Time;durP1;ratioP1;P1;durP2;ratioP2;P2;SDS_P1;SDS_P2;PMS_P1;PMS_P2;Temp;Humidity;BMP_temperature;BMP_pressure;BME280_temperature;BME280_humidity;BME280_pressure;Samples;Min_cycle;Max_cycle;Signal;HPM_P1;HPM_P2
2020/12/25 00:01:24;;;;;;;0.70;0.70;;;2.10;99.90;;;;;;5062190;28;20643;-54
2020/12/25 00:03:49;;;;;;;0.80;0.80;;;2.10;99.90;;;;;;5063138;28;20437;-54
2020/12/25 00:06:15;;;;;;;0.83;0.83;;;2.00;99.90;;;;;;5060555;28;20428;-54
2020/12/25 00:08:41;;;;;;;0.80;0.80;;;2.00;99.90;;;;;;5062431;28;20254;-54
2020/12/25 00:11:07;;;;;;;0.90;0.90;;;2.00;99.90;;;;;;5063643;28;20441;-54
2020/12/25 00:13:32;;;;;;;0.83;0.83;;;2.00;99.90;;;;;;5061104;28;20690;-53
2020/12/25 00:15:58;;;;;;;0.80;0.80;;;2.00;99.90;;;;;;5058001;28;20941;-55
2020/12/25 00:18:24;;;;;;;0.90;0.90;;;1.90;99.90;;;;;;5061200;28;20659;-53
2020/12/25 00:20:51;;;;;;;0.90;0.90;;;1.90;99.90;;;;;;5050069;28;20465;-56
2020/12/25 00:23:17;;;;;;;1.60;0.70;;;1.90;99.90;;;;;;5061755;28;20948;-53
2020/12/25 00:25:43;;;;;;;0.97;0.90;;;1.90;99.90;;;;;;5058700;28;20435;-55
2020/12/25 00:28:09;;;;;;;0.90;0.90;;;1.80;99.90;;;;;;5044567;28;20194;-55
2020/12/25 00:30:35;;;;;;;0.83;0.83;;;1.80;99.90;;;;;;5058362;28;20551;-54
2020/12/25 00:33:01;;;;;;;0.87;0.87;;;1.80;99.90;;;;;;5061922;28;20638;-56
2020/12/25 00:35:26;;;;;;;0.80;0.80;;;1.80;99.90;;;;;;5065623;28;20188;-53
2020/12/25 00:37:52;;;;;;;0.80;0.80;;;1.70;99.90;;;;;;5066924;28;20555;-54
2020/12/25 00:40:18;;;;;;;0.80;0.80;;;1.70;99.90;;;;;;5065340;28;20185;-54
2020/12/25 00:42:43;;;;;;;0.73;0.73;;;1.60;99.90;;;;;;5060519;28;20786;-53
2020/12/25 00:45:09;;;;;;;0.80;0.80;;;1.60;99.90;;;;;;5061973;28;20876;-56
2020/12/25 00:47:34;;;;;;;0.80;0.80;;;1.60;99.90;;;;;;5064883;28;20185;-52
2020/12/25 00:50:00;;;;;;;1.23;0.90;;;1.60;99.90;;;;;;5051492;28;20187;-54
2020/12/25 00:52:26;;;;;;;3.03;1.47;;;1.60;99.90;;;;;;5050593;28;20200;-54
2020/12/25 00:54:52;;;;;;;0.90;0.90;;;1.60;99.90;;;;;;5053926;28;20242;-55
2020/12/25 00:57:18;;;;;;;1.20;0.97;;;1.60;99.90;;;;;;5065379;28;20189;-53
2020/12/25 00:59:44;;;;;;;0.70;0.70;;;1.60;99.90;;;;;;5066250;28;20212;-53
2020/12/25 01:02:10;;;;;;;0.70;0.70;;;1.60;99.90;;;;;;5063119;28;20978;-52
2020/12/25 01:04:36;;;;;;;0.73;0.73;;;1.60;99.90;;;;;;5062556;28;20431;-54
2020/12/25 01:07:08;;;;;;;0.80;0.80;;;1.50;99.90;;;;;;5059881;28;20580;-55
2020/12/25 01:09:35;;;;;;;0.93;0.93;;;1.60;99.90;;;;;;5047616;28;20422;-54
2020/12/25 01:12:03;;;;;;;0.90;0.90;;;1.50;99.90;;;;;;5063341;28;21346;-55
2020/12/25 01:14:29;;;;;;;0.80;0.80;;;1.50;99.90;;;;;;5066319;28;20434;-53
2020/12/25 01:16:56;;;;;;;0.70;0.70;;;1.50;99.90;;;;;;5064618;28;20539;-53
2020/12/25 01:19:23;;;;;;;0.80;0.80;;;1.50;99.90;;;;;;5067708;28;20427;-54
2020/12/25 01:21:48;;;;;;;0.70;0.70;;;1.50;99.90;;;;;;5065548;28;20473;-53
2020/12/25 01:24:14;;;;;;;0.90;0.90;;;1.50;99.90;;;;;;5054077;28;20817;-54
2020/12/25 01:26:40;;;;;;;1.03;1.03;;;1.50;99.90;;;;;;5064478;28;20184;-54
2020/12/25 01:29:05;;;;;;;0.90;0.90;;;1.60;99.90;;;;;;5047103;28;20278;-54
2020/12/25 01:31:31;;;;;;;0.80;0.80;;;1.60;99.90;;;;;;5062617;28;20193;-54
2020/12/25 01:33:57;;;;;;;0.87;0.87;;;1.60;99.90;;;;;;5045195;28;20196;-54
2020/12/25 01:36:23;;;;;;;0.90;0.90;;;1.60;99.90;;;;;;5050558;28;20188;-55
2020/12/25 01:38:49;;;;;;;0.80;0.80;;;1.60;99.90;;;;;;5041410;28;20497;-52
2020/12/25 01:41:15;;;;;;;0.80;0.80;;;1.60;99.90;;;;;;5054957;28;20180;-52
2020/12/25 01:43:40;;;;;;;0.70;0.70;;;1.60;99.90;;;;;;5044644;28;20224;-54
2020/12/25 01:46:07;;;;;;;0.87;0.87;;;1.60;99.90;;;;;;5065020;28;20445;-58
2020/12/25 01:48:33;;;;;;;0.97;0.97;;;1.60;99.90;;;;;;5046736;28;20192;-52
2020/12/25 01:50:59;;;;;;;0.90;0.90;;;1.60;99.90;;;;;;5062401;28;20487;-53
2020/12/25 01:53:27;;;;;;;0.87;0.87;;;1.60;99.90;;;;;;5058717;28;21253;-52
2020/12/25 01:55:54;;;;;;;0.80;0.80;;;1.60;99.90;;;;;;5060398;28;20451;-53
2020/12/25 01:58:23;;;;;;;0.80;0.80;;;1.60;99.90;;;;;;5062062;28;20509;-56
2020/12/25 02:00:50;;;;;;;0.90;0.90;;;1.60;99.90;;;;;;5065679;28;20442;-54
2020/12/25 02:03:16;;;;;;;0.97;0.97;;;1.60;99.90;;;;;;5062450;28;20458;-54
2020/12/25 02:05:46;;;;;;;0.77;0.77;;;1.50;99.90;;;;;;5065460;28;21027;-55
2020/12/25 02:08:13;;;;;;;0.80;0.80;;;1.60;99.90;;;;;;5055876;28;20444;-54
2020/12/25 02:10:39;;;;;;;1.00;1.00;;;1.60;99.90;;;;;;5055507;28;20431;-54
2020/12/25 02:13:06;;;;;;;0.90;0.90;;;1.60;99.90;;;;;;5064496;28;20462;-54
2020/12/25 02:15:32;;;;;;;0.80;0.80;;;1.60;99.90;;;;;;5065028;28;20580;-55
2020/12/25 02:17:58;;;;;;;0.83;0.83;;;1.60;99.90;;;;;;5064191;28;20511;-52
2020/12/25 02:20:24;;;;;;;0.90;0.90;;;1.60;99.90;;;;;;5064698;28;20579;-56
2020/12/25 02:22:50;;;;;;;1.00;1.00;;;1.60;99.90;;;;;;5063079;28;21275;-52
2020/12/25 02:25:16;;;;;;;0.90;0.90;;;1.60;99.90;;;;;;5063797;28;20181;-53
2020/12/25 02:27:42;;;;;;;0.80;0.80;;;1.60;99.90;;;;;;5063732;28;20442;-54
2020/12/25 02:30:07;;;;;;;0.80;0.80;;;1.60;99.90;;;;;;5064322;28;20440;-54
2020/12/25 02:32:37;;;;;;;0.93;0.93;;;1.60;99.90;;;;;;5060836;28;20218;-56
2020/12/25 02:35:04;;;;;;;0.90;0.90;;;1.60;99.90;;;;;;5056125;28;20555;-53
2020/12/25 02:37:30;;;;;;;0.80;0.80;;;1.60;99.90;;;;;;5068412;28;20932;-53
2020/12/25 02:39:56;;;;;;;1.10;1.00;;;1.60;99.90;;;;;;5070517;28;20418;-53
2020/12/25 02:42:22;;;;;;;0.90;0.90;;;1.60;99.90;;;;;;5059525;28;20525;-55
2020/12/25 02:44:47;;;;;;;1.03;1.03;;;1.60;99.90;;;;;;5062770;28;20310;-55
2020/12/25 02:47:13;;;;;;;1.00;1.00;;;1.60;99.90;;;;;;5059794;28;20175;-53
2020/12/25 02:49:39;;;;;;;1.00;1.00;;;1.60;99.90;;;;;;5062970;28;20167;-53
2020/12/25 02:52:05;;;;;;;0.80;0.80;;;1.60;99.90;;;;;;5064764;28;20885;-53
2020/12/25 02:54:31;;;;;;;0.73;0.73;;;1.60;99.90;;;;;;5066178;28;21211;-52
2020/12/25 02:57:00;;;;;;;0.90;0.90;;;1.60;99.90;;;;;;5048095;28;20475;-52
2020/12/25 02:59:26;;;;;;;1.00;1.00;;;1.70;99.90;;;;;;5049523;28;20173;-53
2020/12/25 03:01:53;;;;;;;0.80;0.80;;;1.70;99.90;;;;;;5060633;28;20810;-54
2020/12/25 03:04:19;;;;;;;1.77;0.93;;;1.70;99.90;;;;;;5064393;28;20191;-54
2020/12/25 03:06:45;;;;;;;1.00;1.00;;;1.70;99.90;;;;;;5066369;28;20447;-55
2020/12/25 03:09:12;;;;;;;0.90;0.90;;;1.70;99.90;;;;;;5064788;28;20979;-54
2020/12/25 03:11:37;;;;;;;0.97;0.97;;;1.70;99.90;;;;;;5065659;28;20457;-53
2020/12/25 03:14:04;;;;;;;1.20;1.10;;;1.80;99.90;;;;;;5066136;28;20416;-54
2020/12/25 03:16:30;;;;;;;0.90;0.90;;;1.80;99.90;;;;;;5046161;28;20791;-56
2020/12/25 03:18:56;;;;;;;1.20;1.10;;;1.80;99.90;;;;;;5065752;28;20427;-56
2020/12/25 03:21:22;;;;;;;0.93;0.93;;;1.90;99.90;;;;;;5052000;28;20897;-54
2020/12/25 03:23:48;;;;;;;0.90;0.90;;;1.80;99.90;;;;;;5066949;28;20188;-54
2020/12/25 03:26:17;;;;;;;1.23;1.23;;;1.80;99.90;;;;;;5061862;28;20433;-54
2020/12/25 03:28:43;;;;;;;1.30;1.30;;;1.80;99.90;;;;;;5064896;28;20615;-55
2020/12/25 03:31:09;;;;;;;1.20;1.10;;;1.80;99.90;;;;;;5054928;28;20449;-53
2020/12/25 03:33:34;;;;;;;1.20;1.20;;;1.80;99.90;;;;;;5062939;28;20969;-53
2020/12/25 03:36:01;;;;;;;1.20;1.20;;;1.90;99.90;;;;;;5068476;28;20425;-56
2020/12/25 03:38:27;;;;;;;1.40;1.30;;;1.90;99.90;;;;;;5067330;28;20222;-55
2020/12/25 03:40:52;;;;;;;1.27;1.27;;;1.90;99.90;;;;;;5067394;28;20452;-55
2020/12/25 03:43:18;;;;;;;1.60;1.23;;;1.90;99.90;;;;;;5066828;28;20469;-53
2020/12/25 03:45:45;;;;;;;1.30;1.23;;;1.90;99.90;;;;;;5067313;28;20326;-54
2020/12/25 03:48:11;;;;;;;1.20;1.20;;;1.90;99.90;;;;;;5067375;28;20423;-55
2020/12/25 03:50:36;;;;;;;1.30;1.30;;;1.90;99.90;;;;;;5063241;28;20438;-54
2020/12/25 03:53:02;;;;;;;1.27;1.17;;;1.90;99.90;;;;;;5067805;28;20193;-53
2020/12/25 03:55:28;;;;;;;1.23;1.23;;;1.90;99.90;;;;;;5066358;28;21654;-53
2020/12/25 03:57:54;;;;;;;1.43;1.20;;;1.90;99.90;;;;;;5058825;28;20568;-53
2020/12/25 04:00:20;;;;;;;1.30;1.30;;;1.90;99.90;;;;;;5059137;28;20960;-53
2020/12/25 04:02:48;;;;;;;1.30;1.20;;;1.90;99.90;;;;;;5066919;28;20470;-53
2020/12/25 04:05:14;;;;;;;1.47;1.40;;;1.90;99.90;;;;;;5050582;28;20181;-53
2020/12/25 04:07:40;;;;;;;1.40;1.40;;;1.90;99.90;;;;;;5056238;28;20432;-53
2020/12/25 04:10:05;;;;;;;1.30;1.20;;;1.90;99.90;;;;;;5072332;28;20193;-57
2020/12/25 04:12:31;;;;;;;1.30;1.20;;;1.90;99.90;;;;;;5073132;28;20249;-55
2020/12/25 04:14:57;;;;;;;1.27;1.27;;;1.90;99.90;;;;;;5073285;28;20250;-55
2020/12/25 04:17:23;;;;;;;1.40;1.30;;;1.90;99.90;;;;;;5076081;28;20187;-54
2020/12/25 04:19:48;;;;;;;1.27;1.27;;;1.90;99.90;;;;;;5075198;28;20466;-55
2020/12/25 04:22:14;;;;;;;1.40;1.30;;;1.90;99.90;;;;;;5072718;28;20220;-55
2020/12/25 04:24:40;;;;;;;1.33;1.23;;;1.90;99.90;;;;;;5073035;28;20184;-55
2020/12/25 04:27:06;;;;;;;1.43;1.30;;;1.90;99.90;;;;;;5071854;28;20438;-55
2020/12/25 04:29:32;;;;;;;1.30;1.30;;;1.90;99.90;;;;;;5062967;28;20691;-56
2020/12/25 04:31:57;;;;;;;1.40;1.30;;;1.90;99.90;;;;;;5063660;28;20217;-56
2020/12/25 04:34:23;;;;;;;1.30;1.20;;;1.90;99.90;;;;;;5071230;28;21699;-53
2020/12/25 04:36:48;;;;;;;1.40;1.30;;;1.90;99.90;;;;;;5073936;28;20191;-53
2020/12/25 04:39:14;;;;;;;1.40;1.30;;;2.00;99.90;;;;;;5074495;28;20195;-54
2020/12/25 04:41:40;;;;;;;1.10;1.10;;;1.90;99.90;;;;;;5071070;28;20213;-56
2020/12/25 04:44:06;;;;;;;1.03;1.03;;;2.00;99.90;;;;;;5115917;22;20224;-64
2020/12/25 04:46:33;;;;;;;1.43;1.33;;;1.90;99.90;;;;;;5088914;28;20666;-65
2020/12/25 04:48:59;;;;;;;1.20;1.20;;;1.90;99.90;;;;;;5083049;28;20434;-66
2020/12/25 04:51:25;;;;;;;1.20;1.20;;;1.90;99.90;;;;;;5086225;28;20431;-67
2020/12/25 04:53:52;;;;;;;1.37;1.30;;;1.90;99.90;;;;;;5080449;28;20455;-70
2020/12/25 04:56:23;;;;;;;1.00;1.00;;;1.90;99.90;;;;;;5069377;28;20497;-65
2020/12/25 04:58:50;;;;;;;2.37;2.17;;;1.90;99.90;;;;;;5075747;28;20574;-69
2020/12/25 05:01:15;;;;;;;2.37;2.20;;;1.80;99.90;;;;;;5063819;28;20435;-67
2020/12/25 05:03:43;;;;;;;1.67;1.57;;;1.80;99.90;;;;;;5060466;28;20477;-66
2020/12/25 05:06:11;;;;;;;1.80;1.70;;;1.80;99.90;;;;;;5063967;28;20170;-66
2020/12/25 05:08:47;;;;;;;1.43;1.33;;;1.80;99.90;;;;;;5062554;28;20436;-66
2020/12/25 05:11:17;;;;;;;1.40;1.30;;;1.80;99.90;;;;;;5041535;28;20439;-65
2020/12/25 05:13:51;;;;;;;1.00;1.00;;;1.80;99.90;;;;;;5060952;28;20455;-69
2020/12/25 05:16:18;;;;;;;1.33;1.33;;;1.80;99.90;;;;;;5048917;28;20464;-64
2020/12/25 05:18:46;;;;;;;1.43;1.33;;;1.80;99.90;;;;;;5041339;28;20426;-61
2020/12/25 05:21:17;;;;;;;1.33;1.33;;;1.80;99.90;;;;;;5040215;28;20516;-62
2020/12/25 05:23:44;;;;;;;1.40;1.40;;;1.80;99.90;;;;;;5037725;28;20491;-65
2020/12/25 05:26:12;;;;;;;1.17;1.17;;;1.80;99.90;;;;;;5027790;28;20444;-61
2020/12/25 05:28:40;;;;;;;1.27;1.17;;;1.80;99.90;;;;;;5041439;28;20870;-62
2020/12/25 05:31:07;;;;;;;1.73;1.20;;;1.80;99.90;;;;;;5023226;28;20452;-62
2020/12/25 05:33:34;;;;;;;1.10;1.10;;;1.80;99.90;;;;;;5039063;28;20456;-61
2020/12/25 05:36:06;;;;;;;1.83;1.27;;;1.80;99.90;;;;;;5023297;28;20507;-62
2020/12/25 05:38:31;;;;;;;1.60;1.50;;;1.80;99.90;;;;;;5032609;28;20426;-62
2020/12/25 05:41:00;;;;;;;1.10;1.10;;;1.80;99.90;;;;;;5046256;28;20422;-62
2020/12/25 05:43:26;;;;;;;1.40;1.30;;;1.80;99.90;;;;;;5033252;28;20205;-62
2020/12/25 05:45:52;;;;;;;1.30;1.30;;;1.80;99.90;;;;;;5036438;28;20523;-61
2020/12/25 05:48:18;;;;;;;1.20;1.20;;;1.80;99.90;;;;;;5042299;28;20467;-62
2020/12/25 05:50:44;;;;;;;1.27;1.17;;;1.80;99.90;;;;;;5032407;28;20545;-62
2020/12/25 05:53:10;;;;;;;1.20;1.10;;;1.80;99.90;;;;;;5022488;28;20452;-62
2020/12/25 05:55:38;;;;;;;1.53;1.17;;;1.80;99.90;;;;;;5037960;28;20440;-62
2020/12/25 05:58:04;;;;;;;1.10;1.00;;;1.80;99.90;;;;;;5041236;28;20178;-64
2020/12/25 06:00:31;;;;;;;1.37;1.33;;;1.80;99.90;;;;;;5034400;28;20433;-63
2020/12/25 06:02:57;;;;;;;1.20;1.10;;;1.80;99.90;;;;;;5041033;28;20465;-66
2020/12/25 06:05:25;;;;;;;1.10;1.10;;;1.80;99.90;;;;;;5043633;28;20408;-62
2020/12/25 06:07:52;;;;;;;1.10;1.10;;;1.80;99.90;;;;;;5042864;28;20982;-62
2020/12/25 06:10:20;;;;;;;1.43;1.37;;;1.80;99.90;;;;;;5041352;28;20447;-62
2020/12/25 06:12:46;;;;;;;1.20;1.10;;;1.90;99.90;;;;;;5034093;28;20510;-61
2020/12/25 06:15:31;;;;;;;1.37;1.27;;;1.90;99.90;;;;;;5033384;28;20438;-65
2020/12/25 06:18:07;;;;;;;1.07;1.07;;;1.90;99.90;;;;;;5049984;28;21059;-62
2020/12/25 06:20:42;;;;;;;1.70;1.60;;;1.90;99.90;;;;;;5053657;28;20423;-61
2020/12/25 06:23:11;;;;;;;1.57;1.47;;;1.90;99.90;;;;;;5069649;28;20489;-62
2020/12/25 06:25:39;;;;;;;1.40;1.30;;;1.90;99.90;;;;;;5048335;28;21009;-62
2020/12/25 06:28:05;;;;;;;1.23;1.20;;;1.90;99.90;;;;;;5047278;28;20435;-61
2020/12/25 06:30:33;;;;;;;1.27;1.27;;;1.90;99.90;;;;;;5049735;28;20471;-64
2020/12/25 06:32:59;;;;;;;1.60;1.50;;;1.90;99.90;;;;;;5037861;28;20245;-61
2020/12/25 06:35:37;;;;;;;1.50;1.40;;;1.90;99.90;;;;;;5046974;28;20435;-61
2020/12/25 06:38:11;;;;;;;1.30;1.20;;;1.90;99.90;;;;;;5073372;28;20499;-61
2020/12/25 06:40:38;;;;;;;1.50;1.40;;;1.90;99.90;;;;;;5049814;28;20559;-62
2020/12/25 06:43:13;;;;;;;1.50;1.40;;;1.90;99.90;;;;;;5030105;28;21016;-61
2020/12/25 06:45:38;;;;;;;1.50;1.40;;;1.90;99.90;;;;;;5050811;28;20465;-64
2020/12/25 06:48:19;;;;;;;1.30;1.30;;;1.90;99.90;;;;;;5050288;28;20423;-61
2020/12/25 06:50:52;;;;;;;1.20;1.20;;;1.90;99.90;;;;;;5030688;28;20479;-62
2020/12/25 06:53:36;;;;;;;1.50;1.40;;;1.90;99.90;;;;;;5033569;28;20450;-61
2020/12/25 06:56:19;;;;;;;2.17;1.50;;;1.90;99.90;;;;;;5052451;28;20844;-64
2020/12/25 06:58:47;;;;;;;1.70;1.60;;;1.90;99.90;;;;;;5044873;28;20930;-61
2020/12/25 07:01:15;;;;;;;1.67;1.50;;;1.90;99.90;;;;;;5047399;28;20798;-63
2020/12/25 07:03:41;;;;;;;1.30;1.20;;;1.90;99.90;;;;;;5048512;28;20463;-64
2020/12/25 07:06:12;;;;;;;1.20;1.20;;;1.80;99.90;;;;;;5025806;28;20438;-62
2020/12/25 07:08:43;;;;;;;1.43;1.33;;;1.80;99.90;;;;;;5046677;28;20804;-62
2020/12/25 07:11:10;;;;;;;1.57;1.27;;;1.80;99.90;;;;;;5046066;28;20436;-62
2020/12/25 07:13:37;;;;;;;1.40;1.30;;;1.80;99.90;;;;;;5052697;28;20491;-62
2020/12/25 07:16:04;;;;;;;1.20;1.20;;;1.80;99.90;;;;;;5048634;28;20466;-65
2020/12/25 07:18:30;;;;;;;1.27;1.27;;;1.80;99.90;;;;;;5050707;28;20420;-62
2020/12/25 07:21:01;;;;;;;1.30;1.20;;;1.80;99.90;;;;;;5042246;28;20431;-61
2020/12/25 07:23:27;;;;;;;1.40;1.30;;;1.80;99.90;;;;;;5045404;28;20475;-65
2020/12/25 07:25:57;;;;;;;2.03;1.40;;;1.80;99.90;;;;;;5028215;28;20439;-66
2020/12/25 07:28:25;;;;;;;1.23;1.23;;;1.80;99.90;;;;;;5026048;28;20535;-63
2020/12/25 07:30:54;;;;;;;1.57;1.47;;;1.80;99.90;;;;;;5044438;28;20427;-61
2020/12/25 07:33:20;;;;;;;1.00;1.00;;;1.80;99.90;;;;;;5021444;28;20462;-64
2020/12/25 07:35:46;;;;;;;1.10;1.10;;;1.80;99.90;;;;;;5042493;28;20480;-62
2020/12/25 07:38:14;;;;;;;1.47;1.37;;;1.80;99.90;;;;;;5041270;28;20436;-62
2020/12/25 07:40:41;;;;;;;1.30;1.20;;;1.90;99.90;;;;;;5038204;28;20786;-62
2020/12/25 07:43:07;;;;;;;1.47;1.37;;;1.90;99.90;;;;;;5048064;28;20521;-61
2020/12/25 07:45:34;;;;;;;1.23;1.23;;;1.90;99.90;;;;;;5029331;28;20968;-61
2020/12/25 07:48:04;;;;;;;1.70;1.60;;;1.90;99.90;;;;;;5049185;28;20473;-60
2020/12/25 07:50:38;;;;;;;1.50;1.33;;;1.90;99.90;;;;;;5040815;28;20444;-60
2020/12/25 07:53:17;;;;;;;2.73;1.43;;;1.90;99.90;;;;;;5044713;28;20450;-60
2020/12/25 07:55:47;;;;;;;1.97;1.77;;;1.90;99.90;;;;;;5047104;28;20867;-60
2020/12/25 07:58:17;;;;;;;2.10;1.90;;;1.80;99.90;;;;;;5050422;28;20428;-60
2020/12/25 08:00:43;;;;;;;3.67;2.10;;;1.80;99.90;;;;;;5039162;28;20964;-59
2020/12/25 08:03:10;;;;;;;2.00;1.83;;;1.80;99.90;;;;;;5035910;28;20526;-59
2020/12/25 08:05:37;;;;;;;3.07;2.07;;;1.80;99.90;;;;;;5049546;28;20463;-58
2020/12/25 08:08:03;;;;;;;4.47;2.70;;;1.80;99.90;;;;;;5050685;28;20431;-60
2020/12/25 08:10:30;;;;;;;2.40;2.20;;;1.80;99.90;;;;;;5050141;28;20434;-60
2020/12/25 08:12:57;;;;;;;2.10;2.00;;;1.70;99.90;;;;;;5041259;28;20487;-59
2020/12/25 08:15:24;;;;;;;3.97;2.60;;;1.80;99.90;;;;;;5030836;28;20573;-57
2020/12/25 08:17:57;;;;;;;2.73;2.03;;;1.80;99.90;;;;;;5028280;28;20439;-59
2020/12/25 08:20:23;;;;;;;2.40;1.87;;;1.80;99.90;;;;;;5044416;28;20436;-59
2020/12/25 08:22:50;;;;;;;2.50;2.03;;;1.80;99.90;;;;;;5043083;28;20470;-61
2020/12/25 08:25:17;;;;;;;2.20;2.00;;;1.80;99.90;;;;;;5048913;28;21038;-61
2020/12/25 08:27:43;;;;;;;4.33;2.53;;;1.80;99.90;;;;;;5046434;28;20466;-61
2020/12/25 08:30:08;;;;;;;5.77;3.47;;;1.80;99.90;;;;;;5042071;28;20432;-62
2020/12/25 08:32:34;;;;;;;3.30;2.90;;;1.80;99.90;;;;;;5018059;28;20237;-62
2020/12/25 08:35:19;;;;;;;3.10;2.37;;;1.80;99.90;;;;;;5046052;28;20177;-61
2020/12/25 08:37:51;;;;;;;1.77;1.67;;;1.80;99.90;;;;;;5038520;28;20439;-60
2020/12/25 08:40:17;;;;;;;1.40;1.30;;;1.80;99.90;;;;;;5024326;28;20493;-60
2020/12/25 08:42:43;;;;;;;1.50;1.40;;;1.80;99.90;;;;;;5041432;28;20463;-59
2020/12/25 08:45:09;;;;;;;1.37;1.27;;;1.80;99.90;;;;;;5025923;28;20200;-60
2020/12/25 08:47:35;;;;;;;2.60;1.50;;;1.80;99.90;;;;;;5023778;28;20667;-61
2020/12/25 08:50:02;;;;;;;1.30;1.30;;;1.80;99.90;;;;;;5022838;28;20442;-64
2020/12/25 08:52:29;;;;;;;1.27;1.17;;;1.80;99.90;;;;;;5049217;28;20538;-61
2020/12/25 08:54:56;;;;;;;1.53;1.43;;;1.80;99.90;;;;;;5040454;28;20520;-62
2020/12/25 08:57:22;;;;;;;1.50;1.40;;;1.80;99.90;;;;;;5043434;28;20418;-61
2020/12/25 08:59:47;;;;;;;1.97;1.40;;;1.80;99.90;;;;;;5051371;28;20807;-61
2020/12/25 09:02:15;;;;;;;2.10;1.53;;;1.80;99.90;;;;;;5025859;28;20467;-61
2020/12/25 09:04:41;;;;;;;2.03;1.30;;;1.80;99.90;;;;;;5023905;28;20189;-64
2020/12/25 09:07:07;;;;;;;1.53;1.43;;;1.80;99.90;;;;;;5043776;28;20457;-63
2020/12/25 09:09:32;;;;;;;1.40;1.30;;;1.80;99.90;;;;;;5025861;28;20953;-61
2020/12/25 09:12:00;;;;;;;1.70;1.60;;;1.80;99.90;;;;;;5040992;28;20182;-61
2020/12/25 09:14:25;;;;;;;1.67;1.57;;;1.80;99.90;;;;;;5042369;28;20584;-61
2020/12/25 09:16:51;;;;;;;1.47;1.37;;;1.80;99.90;;;;;;5045806;28;21005;-63
2020/12/25 09:19:17;;;;;;;2.57;2.30;;;1.90;99.90;;;;;;5030168;28;20264;-61
2020/12/25 09:21:42;;;;;;;3.90;2.40;;;1.90;99.90;;;;;;5043094;28;20810;-59
2020/12/25 09:24:08;;;;;;;4.17;1.80;;;1.90;99.90;;;;;;5043381;28;20250;-62
2020/12/25 09:26:34;;;;;;;4.57;3.03;;;1.90;99.90;;;;;;5026043;28;20728;-61
2020/12/25 09:29:00;;;;;;;3.60;2.30;;;1.90;99.90;;;;;;5041461;28;20195;-61
2020/12/25 09:31:26;;;;;;;2.07;1.97;;;1.90;99.90;;;;;;5011695;28;20442;-63
2020/12/25 09:33:51;;;;;;;9.50;5.03;;;1.90;99.90;;;;;;5042079;28;20297;-61
2020/12/25 09:36:17;;;;;;;3.70;2.13;;;1.90;99.90;;;;;;5052917;28;20482;-60
2020/12/25 09:38:43;;;;;;;2.20;2.00;;;1.90;99.90;;;;;;5049415;28;20263;-60
2020/12/25 09:41:11;;;;;;;2.17;2.07;;;1.90;99.90;;;;;;5045336;28;20848;-60
2020/12/25 09:43:37;;;;;;;1.67;1.57;;;1.90;99.90;;;;;;5057401;28;20221;-60
2020/12/25 09:46:03;;;;;;;2.07;1.80;;;1.90;99.90;;;;;;5050523;28;20442;-61
2020/12/25 09:48:28;;;;;;;2.20;2.10;;;1.90;99.90;;;;;;5034472;28;20554;-61
2020/12/25 09:50:54;;;;;;;3.30;2.50;;;2.00;99.90;;;;;;5030686;28;20440;-63
2020/12/25 09:53:20;;;;;;;3.70;2.63;;;2.00;99.90;;;;;;5041430;28;20207;-62
2020/12/25 09:55:48;;;;;;;3.20;2.90;;;2.00;99.90;;;;;;5024309;28;20687;-60
2020/12/25 09:58:13;;;;;;;2.60;2.40;;;2.00;99.90;;;;;;5055132;28;20178;-60
2020/12/25 10:00:39;;;;;;;3.40;3.10;;;2.00;99.90;;;;;;5048766;28;20434;-60
2020/12/25 10:03:05;;;;;;;3.10;2.67;;;2.10;99.90;;;;;;5048112;28;20218;-60
2020/12/25 10:05:31;;;;;;;4.70;2.90;;;2.10;99.90;;;;;;5049886;28;20655;-61
2020/12/25 10:07:56;;;;;;;3.50;2.57;;;2.10;99.90;;;;;;5047184;28;20657;-66
2020/12/25 10:10:23;;;;;;;2.60;2.40;;;2.20;99.90;;;;;;5053278;28;20424;-62
2020/12/25 10:12:50;;;;;;;3.07;2.77;;;2.20;99.90;;;;;;5055826;28;20190;-62
2020/12/25 10:15:15;;;;;;;3.00;2.60;;;2.30;99.90;;;;;;5050021;28;20960;-60
2020/12/25 10:17:41;;;;;;;3.13;2.83;;;2.30;99.90;;;;;;5031944;28;20428;-61
2020/12/25 10:20:07;;;;;;;3.60;3.07;;;2.30;99.90;;;;;;5043351;28;20194;-62
2020/12/25 10:22:33;;;;;;;3.17;2.87;;;2.40;99.90;;;;;;5047111;28;20209;-63
2020/12/25 10:24:59;;;;;;;3.30;3.00;;;2.40;99.90;;;;;;5042503;28;20561;-62
2020/12/25 10:27:25;;;;;;;6.40;3.37;;;2.40;99.90;;;;;;5032957;28;20519;-63
2020/12/25 10:29:51;;;;;;;3.33;3.03;;;2.40;99.90;;;;;;5051733;28;20995;-62
2020/12/25 10:32:17;;;;;;;3.77;3.17;;;2.40;99.90;;;;;;5056549;28;20523;-64
2020/12/25 10:34:42;;;;;;;4.43;3.40;;;2.40;99.90;;;;;;5046472;28;20429;-62
2020/12/25 10:37:08;;;;;;;13.23;4.30;;;2.40;99.90;;;;;;5049695;28;20186;-62
2020/12/25 10:39:34;;;;;;;5.10;3.90;;;2.50;99.90;;;;;;5055605;28;20732;-62
2020/12/25 10:42:00;;;;;;;5.33;3.40;;;2.50;99.90;;;;;;5057224;28;20479;-66
2020/12/25 10:44:26;;;;;;;5.73;3.90;;;2.50;99.90;;;;;;5029840;23;20226;-55
2020/12/25 10:46:57;;;;;;;5.57;4.40;;;2.50;99.90;;;;;;5058123;28;20257;-55
2020/12/25 10:49:23;;;;;;;7.03;4.07;;;2.50;99.90;;;;;;5060364;28;20312;-59
2020/12/25 10:51:48;;;;;;;3.40;2.97;;;2.50;99.90;;;;;;5069659;28;20549;-54
2020/12/25 10:54:14;;;;;;;6.30;4.20;;;2.50;99.90;;;;;;5055990;28;20205;-56
2020/12/25 10:56:40;;;;;;;7.23;3.70;;;2.40;99.90;;;;;;5049592;28;20813;-55
2020/12/25 10:59:06;;;;;;;6.23;5.20;;;2.40;99.90;;;;;;5053727;28;20671;-55
2020/12/25 11:01:31;;;;;;;7.03;3.00;;;2.50;99.90;;;;;;5043849;28;20250;-58
2020/12/25 11:03:57;;;;;;;3.57;3.10;;;2.50;99.90;;;;;;5031193;28;20209;-53
2020/12/25 11:06:49;;;;;;;4.67;4.20;;;2.50;99.90;;;;;;5045511;28;20189;-54
2020/12/25 11:09:15;;;;;;;4.83;3.37;;;2.50;99.90;;;;;;5046419;28;20442;-54
2020/12/25 11:11:41;;;;;;;7.40;4.27;;;2.50;99.90;;;;;;5045654;28;20440;-58
2020/12/25 11:14:08;;;;;;;4.60;3.20;;;2.50;99.90;;;;;;5044584;28;20556;-55
2020/12/25 11:16:35;;;;;;;4.20;3.60;;;2.50;99.90;;;;;;5044879;28;20594;-52
2020/12/25 11:19:01;;;;;;;3.50;3.20;;;2.50;99.90;;;;;;5046638;28;20520;-53
2020/12/25 11:21:31;;;;;;;3.37;3.07;;;2.50;99.90;;;;;;5044295;28;20541;-54
2020/12/25 11:23:58;;;;;;;3.90;2.87;;;2.50;99.90;;;;;;5045804;28;20467;-55
2020/12/25 11:26:27;;;;;;;3.43;2.80;;;2.60;99.90;;;;;;5042104;28;20436;-56
2020/12/25 11:28:56;;;;;;;3.37;2.97;;;2.60;99.90;;;;;;5033981;28;20515;-56
2020/12/25 11:31:22;;;;;;;2.97;2.77;;;2.60;99.90;;;;;;5044047;28;20826;-55
2020/12/25 11:33:49;;;;;;;2.70;2.50;;;2.60;99.90;;;;;;5042050;28;20684;-54
2020/12/25 11:36:19;;;;;;;3.87;3.17;;;2.60;99.90;;;;;;5043623;28;20510;-54
2020/12/25 11:38:46;;;;;;;2.70;2.50;;;2.60;99.90;;;;;;5050558;28;20415;-54
2020/12/25 11:41:13;;;;;;;4.67;3.00;;;2.50;99.90;;;;;;5047519;28;20522;-53
2020/12/25 11:43:40;;;;;;;5.20;3.30;;;2.50;99.90;;;;;;5049937;28;20514;-54
2020/12/25 11:46:07;;;;;;;5.60;2.77;;;2.50;99.90;;;;;;5048022;28;20443;-54
2020/12/25 11:48:34;;;;;;;3.03;2.73;;;2.40;99.90;;;;;;5050002;28;20425;-54
2020/12/25 11:50:59;;;;;;;5.50;3.47;;;2.40;99.90;;;;;;5047966;28;20428;-54
2020/12/25 11:53:25;;;;;;;5.87;4.90;;;2.50;99.90;;;;;;5033209;28;20979;-54
2020/12/25 11:55:51;;;;;;;4.30;3.83;;;2.50;99.90;;;;;;5047097;28;20221;-56
2020/12/25 11:58:18;;;;;;;3.70;3.33;;;2.50;99.90;;;;;;5044325;28;20496;-55
2020/12/25 12:00:43;;;;;;;3.50;3.17;;;2.60;99.40;;;;;;5044413;28;20514;-55
2020/12/25 12:03:09;;;;;;;3.80;3.20;;;2.60;99.30;;;;;;5045752;28;20557;-54
2020/12/25 12:05:35;;;;;;;3.30;2.77;;;2.60;99.50;;;;;;5046953;28;20772;-55
2020/12/25 12:08:01;;;;;;;3.17;2.87;;;2.60;99.50;;;;;;5028910;28;20436;-56
2020/12/25 12:10:27;;;;;;;3.80;3.13;;;2.70;99.40;;;;;;5045059;28;20179;-55
2020/12/25 12:12:52;;;;;;;4.70;3.00;;;2.80;99.20;;;;;;5040196;28;20427;-53
2020/12/25 12:15:18;;;;;;;3.33;3.03;;;2.80;98.80;;;;;;5043877;28;20199;-54
2020/12/25 12:17:44;;;;;;;4.30;3.30;;;2.80;98.60;;;;;;5047860;28;20184;-53
2020/12/25 12:20:09;;;;;;;3.93;3.00;;;2.80;98.20;;;;;;5046818;28;20219;-54
2020/12/25 12:22:35;;;;;;;2.80;2.60;;;2.80;97.90;;;;;;5043049;28;20604;-55
2020/12/25 12:25:05;;;;;;;4.60;2.90;;;2.80;98.20;;;;;;5019616;28;20205;-56
2020/12/25 12:27:31;;;;;;;3.50;2.80;;;2.80;98.20;;;;;;5046207;28;20182;-54
2020/12/25 12:29:57;;;;;;;4.80;2.83;;;2.90;98.30;;;;;;5046529;28;21329;-54
2020/12/25 12:32:23;;;;;;;2.90;2.60;;;2.90;98.30;;;;;;5049620;28;20446;-54
2020/12/25 12:34:48;;;;;;;2.70;2.50;;;2.90;98.10;;;;;;5044569;28;20453;-53
2020/12/25 12:37:14;;;;;;;2.53;2.20;;;2.90;98.20;;;;;;5046409;28;20589;-54
2020/12/25 12:39:40;;;;;;;2.60;2.40;;;3.00;98.40;;;;;;5050522;28;20179;-54
2020/12/25 12:42:05;;;;;;;2.77;2.30;;;2.80;98.10;;;;;;5049033;28;20201;-53
2020/12/25 12:44:31;;;;;;;2.60;2.40;;;2.80;98.50;;;;;;5049172;28;20596;-55
2020/12/25 12:46:57;;;;;;;3.23;2.93;;;2.60;98.80;;;;;;5047186;28;20957;-53
2020/12/25 12:49:22;;;;;;;3.47;2.33;;;2.50;99.20;;;;;;5049084;28;20188;-53
2020/12/25 12:51:48;;;;;;;2.83;2.43;;;2.50;99.80;;;;;;5045121;28;20201;-53
2020/12/25 12:54:14;;;;;;;2.83;2.50;;;2.50;99.80;;;;;;5050493;28;20212;-54
2020/12/25 12:56:44;;;;;;;4.00;2.57;;;2.60;99.50;;;;;;5046518;28;20866;-54